createdAt,value
2023-04-02T00:01:02.644Z,3.80
2023-04-02T00:03:54.043Z,3.80
2023-04-02T00:06:30.387Z,3.80
2023-04-02T00:09:04.529Z,3.80
2023-04-02T00:11:35.624Z,3.80
2023-04-02T00:14:03.303Z,3.70
2023-04-02T00:16:29.990Z,3.80
2023-04-02T00:18:59.905Z,3.70
2023-04-02T00:21:32.215Z,3.70
2023-04-02T00:23:59.903Z,3.70
2023-04-02T00:26:34.961Z,3.70
2023-04-02T00:29:02.167Z,3.80
2023-04-02T00:31:29.192Z,3.70
2023-04-02T00:33:56.299Z,3.80
2023-04-02T00:36:24.709Z,3.80
2023-04-02T00:38:52.988Z,3.80
2023-04-02T00:41:22.454Z,3.80
2023-04-02T00:43:52.157Z,3.80
2023-04-02T00:46:24.029Z,3.80
2023-04-02T00:48:54.325Z,3.70
2023-04-02T00:51:27.331Z,3.70
2023-04-02T00:53:56.160Z,3.70
2023-04-02T00:56:35.974Z,3.70
2023-04-02T00:59:02.993Z,3.70
2023-04-02T01:01:36.324Z,3.70
2023-04-02T01:04:05.638Z,3.60
2023-04-02T01:06:34.120Z,3.60
2023-04-02T01:09:10.401Z,3.60
2023-04-02T01:11:43.344Z,3.60
2023-04-02T01:14:22.490Z,3.60
2023-04-02T01:16:50.317Z,3.60
2023-04-02T01:19:23.013Z,3.50
2023-04-02T01:22:01.951Z,3.50
2023-04-02T01:24:33.622Z,3.50
2023-04-02T01:27:03.580Z,3.50
2023-04-02T01:29:39.615Z,3.50
2023-04-02T01:32:08.849Z,3.50
2023-04-02T01:34:36.328Z,3.50
2023-04-02T01:37:11.111Z,3.50
2023-04-02T01:39:56.706Z,3.50
2023-04-02T01:42:23.482Z,3.60
2023-04-02T01:44:54.079Z,3.50
2023-04-02T01:47:27.262Z,3.50
2023-04-02T01:50:00.387Z,3.50
2023-04-02T01:52:35.768Z,3.50
2023-04-02T01:55:03.565Z,3.50
2023-04-02T01:57:31.122Z,3.50
2023-04-02T02:00:00.134Z,3.60
2023-04-02T02:02:27.130Z,3.50
2023-04-02T02:04:54.118Z,3.50
2023-04-02T02:07:21.544Z,3.50
2023-04-02T02:09:52.108Z,3.50
2023-04-02T02:12:19.079Z,3.50
2023-04-02T02:14:49.914Z,3.50
2023-04-02T02:17:18.347Z,3.50
2023-04-02T02:19:49.310Z,3.50
2023-04-02T02:22:42.001Z,3.50
2023-04-02T02:25:17.051Z,3.50
2023-04-02T02:27:54.930Z,3.50
2023-04-02T02:30:25.557Z,3.50
2023-04-02T02:33:01.824Z,3.50
2023-04-02T02:35:39.171Z,3.50
2023-04-02T02:38:13.635Z,3.50
2023-04-02T02:40:43.409Z,3.50
2023-04-02T02:43:12.004Z,3.50
2023-04-02T02:45:41.090Z,3.40
2023-04-02T02:48:12.458Z,3.40
2023-04-02T02:50:39.809Z,3.40
2023-04-02T02:53:15.697Z,3.40
2023-04-02T02:55:42.588Z,3.50
2023-04-02T02:58:19.354Z,3.50
2023-04-02T03:01:06.663Z,3.40
2023-04-02T03:03:35.627Z,3.40
2023-04-02T03:06:06.921Z,3.40
2023-04-02T03:08:37.989Z,3.40
2023-04-02T03:11:26.656Z,3.40
2023-04-02T03:13:57.067Z,3.40
2023-04-02T03:16:28.353Z,3.40
2023-04-02T03:18:58.669Z,3.40
2023-04-02T03:21:38.958Z,3.40
2023-04-02T03:24:12.407Z,3.40
2023-04-02T03:26:57.946Z,3.40
2023-04-02T03:29:27.932Z,3.30
2023-04-02T03:32:21.858Z,3.30
2023-04-02T03:34:48.855Z,3.30
2023-04-02T03:37:16.310Z,3.30
2023-04-02T03:39:47.963Z,3.30
2023-04-02T03:42:14.807Z,3.20
2023-04-02T03:45:02.926Z,3.20
2023-04-02T03:47:48.835Z,3.30
2023-04-02T03:50:29.066Z,3.20
2023-04-02T03:52:59.857Z,3.20
2023-04-02T03:55:29.017Z,3.20
2023-04-02T03:58:11.684Z,3.30
2023-04-02T04:00:38.919Z,3.30
2023-04-02T04:03:25.395Z,3.20
2023-04-02T04:05:55.689Z,3.20
2023-04-02T04:08:26.191Z,3.20
2023-04-02T04:10:56.125Z,3.30
2023-04-02T04:13:28.913Z,3.20
2023-04-02T04:16:08.150Z,3.30
2023-04-02T04:18:43.718Z,3.20
2023-04-02T04:21:31.129Z,3.20
2023-04-02T04:24:21.832Z,3.20
2023-04-02T04:26:54.303Z,3.30
2023-04-02T04:29:40.740Z,3.30
2023-04-02T04:32:19.523Z,3.30
2023-04-02T04:34:53.723Z,3.30
2023-04-02T04:37:33.454Z,3.30
2023-04-02T04:40:01.914Z,3.40
2023-04-02T04:42:32.060Z,3.40
2023-04-02T04:45:08.769Z,3.40
2023-04-02T04:47:39.042Z,3.30
2023-04-02T04:50:15.832Z,3.40
2023-04-02T04:52:43.391Z,3.40
2023-04-02T04:55:29.552Z,3.30
2023-04-02T04:58:03.908Z,3.40
2023-04-02T05:00:50.173Z,3.40
2023-04-02T05:03:18.239Z,3.40
2023-04-02T05:05:45.628Z,3.40
2023-04-02T05:08:16.555Z,3.40
2023-04-02T05:10:47.439Z,3.40
2023-04-02T05:13:37.026Z,3.40
2023-04-02T05:16:10.958Z,3.40
2023-04-02T05:18:52.392Z,3.40
2023-04-02T05:21:26.284Z,3.40
2023-04-02T05:24:12.052Z,3.40
2023-04-02T05:26:41.128Z,3.40
2023-04-02T05:29:17.284Z,3.50
2023-04-02T05:31:47.816Z,3.50
2023-04-02T05:34:23.461Z,3.50
2023-04-02T05:36:50.886Z,3.50
2023-04-02T05:39:21.795Z,3.50
2023-04-02T05:42:08.135Z,3.50
2023-04-02T05:44:56.064Z,3.50
2023-04-02T05:47:25.203Z,3.60
2023-04-02T05:49:56.503Z,3.50
2023-04-02T05:52:29.280Z,3.60
2023-04-02T05:55:02.735Z,3.60
2023-04-02T05:57:43.180Z,3.70
2023-04-02T06:00:20.153Z,3.70
2023-04-02T06:03:00.208Z,3.70
2023-04-02T06:05:34.319Z,3.70
2023-04-02T06:08:10.802Z,3.70
2023-04-02T06:10:42.814Z,3.70
2023-04-02T06:13:12.170Z,3.80
2023-04-02T06:15:42.338Z,3.80
2023-04-02T06:18:19.961Z,3.80
2023-04-02T06:20:48.218Z,3.80
2023-04-02T06:23:19.335Z,3.90
2023-04-02T06:25:48.732Z,3.90
2023-04-02T06:28:17.088Z,3.90
2023-04-02T06:30:53.273Z,4.00
2023-04-02T06:33:20.939Z,4.00
2023-04-02T06:35:51.011Z,4.00
2023-04-02T06:38:27.162Z,4.10
2023-04-02T06:40:58.634Z,4.10
2023-04-02T06:43:49.603Z,4.10
2023-04-02T06:46:38.776Z,4.10
2023-04-02T06:49:25.722Z,4.10
2023-04-02T06:51:58.577Z,4.10
2023-04-02T06:54:25.942Z,4.20
2023-04-02T06:56:57.705Z,4.30
2023-04-02T06:59:33.946Z,4.30
2023-04-02T07:02:06.421Z,4.30
2023-04-02T07:04:34.239Z,4.30
2023-04-02T07:07:01.959Z,4.30
2023-04-02T07:09:32.919Z,4.50
2023-04-02T07:12:02.164Z,4.50
2023-04-02T07:14:29.540Z,4.60
2023-04-02T07:16:56.401Z,4.70
2023-04-02T07:19:23.211Z,4.70
2023-04-02T07:21:54.531Z,4.80
2023-04-02T07:24:22.753Z,4.80
2023-04-02T07:26:49.410Z,4.90
2023-04-02T07:29:16.954Z,5.00
2023-04-02T07:31:43.993Z,5.10
2023-04-02T07:34:10.856Z,5.00
2023-04-02T07:36:37.572Z,5.10
2023-04-02T07:39:04.576Z,5.20
2023-04-02T07:41:31.488Z,5.10
2023-04-02T07:43:58.439Z,5.20
2023-04-02T07:46:25.857Z,5.10
2023-04-02T07:48:52.854Z,5.20
2023-04-02T07:51:21.737Z,5.20
2023-04-02T07:53:51.624Z,5.10
2023-04-02T07:56:20.978Z,5.10
2023-04-02T07:58:51.635Z,5.10
2023-04-02T08:01:24.374Z,5.20
2023-04-02T08:03:54.298Z,5.20
2023-04-02T08:06:21.858Z,5.30
2023-04-02T08:08:49.045Z,5.30
2023-04-02T08:11:16.374Z,5.40
2023-04-02T08:13:45.712Z,5.40
2023-04-02T08:16:12.499Z,5.50
2023-04-02T08:18:39.396Z,5.60
2023-04-02T08:21:07.921Z,5.70
2023-04-02T08:23:35.872Z,5.70
2023-04-02T08:26:03.107Z,5.90
2023-04-02T08:28:30.060Z,6.10
2023-04-02T08:30:56.923Z,6.20
2023-04-02T08:33:27.205Z,6.20
2023-04-02T08:35:54.002Z,6.30
2023-04-02T08:38:21.850Z,6.20
2023-04-02T08:40:49.962Z,6.10
2023-04-02T08:43:37.473Z,6.30
2023-04-02T08:46:10.228Z,6.40
2023-04-02T08:48:40.217Z,6.50
2023-04-02T08:51:15.142Z,6.60
2023-04-02T08:53:45.462Z,6.50
2023-04-02T08:56:33.997Z,6.60
2023-04-02T08:59:03.255Z,6.70
2023-04-02T09:01:34.800Z,6.70
2023-04-02T09:04:05.534Z,6.60
2023-04-02T09:06:33.394Z,6.50
2023-04-02T09:09:00.563Z,6.60
2023-04-02T09:11:42.405Z,6.50
2023-04-02T09:14:18.565Z,6.50
2023-04-02T09:16:51.322Z,6.50
2023-04-02T09:19:23.961Z,6.50
2023-04-02T09:22:09.588Z,6.60
2023-04-02T09:24:37.736Z,6.60
2023-04-02T09:27:12.160Z,6.40
2023-04-02T09:29:46.792Z,6.30
2023-04-02T09:32:26.297Z,6.30
2023-04-02T09:35:15.005Z,6.30
2023-04-02T09:38:09.706Z,6.40
2023-04-02T09:40:42.353Z,6.10
2023-04-02T09:43:13.911Z,6.30
2023-04-02T09:45:41.769Z,6.40
2023-04-02T09:48:23.074Z,6.20
2023-04-02T09:50:49.838Z,5.90
2023-04-02T09:53:26.036Z,5.80
2023-04-02T09:56:08.088Z,5.90
2023-04-02T09:58:37.726Z,6.00
2023-04-02T10:01:14.046Z,6.20
2023-04-02T10:03:43.038Z,6.30
2023-04-02T10:06:14.591Z,6.40
2023-04-02T10:08:46.249Z,6.40
2023-04-02T10:11:19.313Z,6.20
2023-04-02T10:13:51.542Z,6.00
2023-04-02T10:16:25.772Z,6.20
2023-04-02T10:18:56.959Z,6.30
2023-04-02T10:21:25.405Z,6.50
2023-04-02T10:23:52.267Z,6.60
2023-04-02T10:26:29.382Z,6.60
2023-04-02T10:29:15.916Z,6.70
2023-04-02T10:31:52.201Z,6.80
2023-04-02T10:34:24.860Z,7.10
2023-04-02T10:36:51.808Z,7.40
2023-04-02T10:39:34.113Z,7.50
2023-04-02T10:42:11.113Z,7.70
2023-04-02T10:44:56.668Z,7.70
2023-04-02T10:47:33.865Z,8.00
2023-04-02T10:50:06.982Z,8.30
2023-04-02T10:52:33.718Z,8.40
2023-04-02T10:55:13.369Z,8.50
2023-04-02T10:57:41.612Z,8.30
2023-04-02T11:00:28.838Z,8.20
2023-04-02T11:03:07.429Z,7.90
2023-04-02T11:05:44.015Z,8.00
2023-04-02T11:08:19.926Z,7.90
2023-04-02T11:10:49.090Z,8.10
2023-04-02T11:13:30.863Z,8.00
2023-04-02T11:16:00.538Z,8.10
2023-04-02T11:18:40.908Z,8.40
2023-04-02T11:21:27.580Z,8.30
2023-04-02T11:23:58.633Z,8.40
2023-04-02T11:26:31.091Z,8.30
2023-04-02T11:29:21.526Z,8.20
2023-04-02T11:31:49.086Z,8.20
2023-04-02T11:34:35.862Z,8.00
2023-04-02T11:37:04.357Z,7.80
2023-04-02T11:39:47.097Z,8.00
2023-04-02T11:42:22.518Z,8.40
2023-04-02T11:44:49.307Z,8.60
2023-04-02T11:47:16.274Z,8.70
2023-04-02T11:49:55.317Z,8.70
2023-04-02T11:52:24.161Z,8.80
2023-04-02T11:55:06.002Z,8.70
2023-04-02T11:57:51.161Z,8.60
2023-04-02T12:00:29.849Z,8.70
2023-04-02T12:03:13.425Z,8.90
2023-04-02T12:05:43.442Z,8.90
2023-04-02T12:08:29.014Z,8.80
2023-04-02T12:11:00.441Z,8.80
2023-04-02T12:13:39.545Z,8.80
2023-04-02T12:16:09.729Z,8.60
2023-04-02T12:18:42.181Z,8.60
2023-04-02T12:21:16.573Z,8.30
2023-04-02T12:23:45.710Z,8.00
2023-04-02T12:26:24.775Z,8.30
2023-04-02T12:28:51.609Z,9.10
2023-04-02T12:31:25.334Z,9.90
2023-04-02T12:33:52.739Z,10.90
2023-04-02T12:36:21.640Z,11.90
2023-04-02T12:38:52.997Z,13.20
2023-04-02T12:41:24.496Z,13.50
2023-04-02T12:44:04.996Z,13.60
2023-04-02T12:46:32.856Z,12.80
2023-04-02T12:49:18.032Z,12.30
2023-04-02T12:51:44.754Z,11.70
2023-04-02T12:54:15.458Z,11.10
2023-04-02T12:56:42.834Z,10.70
2023-04-02T12:59:39.780Z,10.20
2023-04-02T13:02:18.103Z,10.10
2023-04-02T13:04:52.018Z,9.80
2023-04-02T13:07:20.606Z,10.20
2023-04-02T13:09:51.551Z,11.00
2023-04-02T13:12:35.316Z,10.80
2023-04-02T13:15:05.073Z,10.20
2023-04-02T13:17:38.800Z,9.80
2023-04-02T13:20:24.414Z,10.80
2023-04-02T13:22:51.237Z,12.40
2023-04-02T13:25:18.048Z,13.90
2023-04-02T13:27:44.701Z,15.00
2023-04-02T13:30:20.218Z,16.50
2023-04-02T13:32:47.168Z,16.40
2023-04-02T13:35:13.916Z,14.80
2023-04-02T13:37:40.939Z,14.30
2023-04-02T13:40:09.183Z,13.90
2023-04-02T13:42:36.681Z,13.30
2023-04-02T13:45:03.880Z,12.30
2023-04-02T13:47:30.710Z,11.60
2023-04-02T13:49:57.449Z,11.10
2023-04-02T13:52:24.124Z,10.70
2023-04-02T13:54:52.860Z,10.40
2023-04-02T13:57:19.674Z,10.20
2023-04-02T13:59:46.715Z,10.50
2023-04-02T14:02:17.032Z,10.40
2023-04-02T14:04:47.463Z,10.50
2023-04-02T14:07:31.240Z,11.00
2023-04-02T14:10:07.101Z,12.00
2023-04-02T14:12:53.067Z,12.20
2023-04-02T14:15:25.667Z,11.80
2023-04-02T14:17:58.190Z,11.20
2023-04-02T14:20:43.347Z,11.40
2023-04-02T14:23:10.286Z,11.90
2023-04-02T14:25:43.350Z,11.80
2023-04-02T14:28:29.895Z,11.90
2023-04-02T14:30:56.574Z,12.50
2023-04-02T14:33:32.867Z,11.20
2023-04-02T14:36:05.885Z,10.60
2023-04-02T14:38:51.540Z,10.30
2023-04-02T14:41:37.011Z,10.00
2023-04-02T14:44:05.278Z,9.70
2023-04-02T14:46:34.889Z,9.50
2023-04-02T14:49:07.077Z,9.60
2023-04-02T14:52:09.441Z,9.80
2023-04-02T14:54:38.707Z,11.50
2023-04-02T14:57:05.633Z,10.50
2023-04-02T15:00:03.520Z,10.20
2023-04-02T15:02:44.874Z,9.70
2023-04-02T15:05:15.613Z,9.80
2023-04-02T15:07:49.506Z,9.30
2023-04-02T15:10:22.855Z,9.20
2023-04-02T15:12:51.116Z,9.10
2023-04-02T15:15:22.236Z,9.40
2023-04-02T15:17:53.885Z,9.30
2023-04-02T15:20:20.758Z,9.00
2023-04-02T15:22:47.651Z,8.80
2023-04-02T15:25:20.539Z,8.60
2023-04-02T15:27:47.847Z,8.50
2023-04-02T15:30:18.707Z,8.20
2023-04-02T15:32:46.093Z,8.30
2023-04-02T15:35:18.916Z,8.20
2023-04-02T15:37:50.287Z,8.30
2023-04-02T15:40:17.034Z,8.40
2023-04-02T15:42:48.228Z,8.40
2023-04-02T15:45:18.677Z,8.60
2023-04-02T15:47:56.971Z,8.60
2023-04-02T15:50:43.936Z,8.40
2023-04-02T15:53:28.063Z,8.00
2023-04-02T15:56:03.501Z,7.90
2023-04-02T15:58:47.471Z,7.80
2023-04-02T16:01:23.275Z,7.70
2023-04-02T16:03:52.792Z,7.80
2023-04-02T16:06:23.448Z,7.70
2023-04-02T16:09:08.598Z,7.70
2023-04-02T16:11:39.154Z,7.60
2023-04-02T16:14:23.946Z,7.50
2023-04-02T16:16:51.867Z,7.60
2023-04-02T16:19:31.210Z,7.70
2023-04-02T16:22:05.537Z,7.60
2023-04-02T16:24:32.472Z,7.50
2023-04-02T16:27:17.841Z,7.50
2023-04-02T16:29:55.391Z,7.40
2023-04-02T16:32:35.804Z,7.30
2023-04-02T16:38:09.187Z,7.10
2023-04-02T16:41:06.950Z,7.00
2023-04-02T16:43:37.630Z,6.90
2023-04-02T16:46:38.370Z,6.90
2023-04-02T16:49:15.382Z,6.80
2023-04-02T16:51:46.447Z,6.80
2023-04-02T16:54:21.197Z,6.60
2023-04-02T16:56:56.063Z,6.50
2023-04-02T16:59:37.558Z,6.60
2023-04-02T17:02:24.536Z,6.50
2023-04-02T17:05:06.322Z,6.40
2023-04-02T17:07:44.328Z,6.30
2023-04-02T17:10:11.136Z,6.30
2023-04-02T17:12:45.668Z,6.20
2023-04-02T17:15:26.681Z,6.10
2023-04-02T17:17:58.123Z,6.00
2023-04-02T17:20:37.894Z,5.90
2023-04-02T17:23:06.339Z,5.80
2023-04-02T17:25:35.379Z,5.80
2023-04-02T17:28:02.674Z,5.70
2023-04-02T17:30:43.538Z,5.60
2023-04-02T17:33:18.168Z,5.50
2023-04-02T17:35:50.861Z,5.40
2023-04-02T17:38:36.714Z,5.30
2023-04-02T17:41:13.302Z,5.30
2023-04-02T17:43:47.856Z,5.20
2023-04-02T17:46:16.815Z,5.20
2023-04-02T17:48:48.366Z,5.10
2023-04-02T17:51:30.415Z,5.00
2023-04-02T17:54:12.409Z,5.00
2023-04-02T17:56:39.154Z,4.90
2023-04-02T17:59:05.802Z,4.80
2023-04-02T18:01:46.704Z,4.80
2023-04-02T18:04:16.680Z,4.80
2023-04-02T18:06:48.212Z,4.70
2023-04-02T18:09:20.835Z,4.70
2023-04-02T18:11:47.517Z,4.60
2023-04-02T18:14:14.204Z,4.60
2023-04-02T18:16:43.672Z,4.50
2023-04-02T18:19:18.120Z,4.40
2023-04-02T18:21:59.885Z,4.40
2023-04-02T18:24:29.387Z,4.40
2023-04-02T18:26:58.959Z,4.40
2023-04-02T18:29:28.423Z,4.30
2023-04-02T18:32:14.021Z,4.20
2023-04-02T18:34:49.883Z,4.20
2023-04-02T18:37:19.391Z,4.20
2023-04-02T18:39:49.201Z,4.30
2023-04-02T18:42:23.110Z,4.30
2023-04-02T18:45:19.568Z,4.30
2023-04-02T18:48:05.405Z,4.20
2023-04-02T18:50:36.728Z,4.20
2023-04-02T18:53:13.949Z,4.20
2023-04-02T18:55:49.382Z,4.10
2023-04-02T18:58:21.987Z,4.00
2023-04-02T19:00:49.571Z,3.80
2023-04-02T19:03:22.244Z,3.90
2023-04-02T19:05:51.700Z,3.80
2023-04-02T19:08:28.835Z,3.80
2023-04-02T19:11:04.728Z,3.80
2023-04-02T19:13:31.655Z,3.70
2023-04-02T19:16:16.396Z,3.70
2023-04-02T19:19:00.680Z,3.60
2023-04-02T19:21:35.538Z,3.50
2023-04-02T19:24:12.266Z,3.60
2023-04-02T19:26:44.247Z,3.60
2023-04-02T19:29:10.893Z,3.50
2023-04-02T19:31:45.073Z,3.50
2023-04-02T19:34:30.837Z,3.40
2023-04-02T19:37:03.264Z,3.40
2023-04-02T19:39:36.142Z,3.30
2023-04-02T19:42:14.765Z,3.30
2023-04-02T19:44:44.272Z,3.20
2023-04-02T19:47:11.166Z,3.20
2023-04-02T19:49:37.930Z,3.20
2023-04-02T19:52:04.816Z,3.20
2023-04-02T19:54:31.550Z,3.20
2023-04-02T19:56:58.254Z,3.30
2023-04-02T19:59:24.917Z,3.20
2023-04-02T20:01:51.651Z,3.20
2023-04-02T20:04:18.453Z,3.20
2023-04-02T20:06:45.313Z,3.10
2023-04-02T20:09:14.180Z,3.10
2023-04-02T20:11:53.712Z,3.10
2023-04-02T20:14:25.375Z,3.00
2023-04-02T20:16:52.113Z,3.00
2023-04-02T20:19:18.913Z,3.00
2023-04-02T20:21:45.614Z,3.00
2023-04-02T20:24:12.369Z,2.90
2023-04-02T20:26:39.053Z,2.90
2023-04-02T20:29:05.897Z,2.90
2023-04-02T20:31:33.724Z,2.90
2023-04-02T20:34:02.538Z,2.80
2023-04-02T20:36:29.422Z,2.80
2023-04-02T20:38:57.429Z,2.70
2023-04-02T20:41:24.114Z,2.70
2023-04-02T20:43:50.874Z,2.70
2023-04-02T20:46:17.864Z,2.70
2023-04-02T20:48:45.138Z,2.70
2023-04-02T20:51:13.977Z,2.70
2023-04-02T20:53:40.849Z,2.60
2023-04-02T20:56:08.942Z,2.60
2023-04-02T20:58:36.442Z,2.60
2023-04-02T21:01:06.943Z,2.50
2023-04-02T21:03:33.653Z,2.50
2023-04-02T21:06:00.362Z,2.40
2023-04-02T21:08:30.002Z,2.30
2023-04-02T21:11:06.596Z,2.30
2023-04-02T21:13:35.281Z,2.30
2023-04-02T21:16:02.969Z,2.40
2023-04-02T21:18:30.989Z,2.40
2023-04-02T21:20:58.555Z,2.30
2023-04-02T21:23:26.290Z,2.20
2023-04-02T21:25:59.950Z,2.20
2023-04-02T21:28:27.375Z,2.20
2023-04-02T21:31:02.061Z,2.20
2023-04-02T21:33:28.896Z,2.20
2023-04-02T21:35:55.838Z,2.30
2023-04-02T21:38:22.663Z,2.10
2023-04-02T21:40:49.363Z,2.10
2023-04-02T21:43:16.205Z,2.00
2023-04-02T21:45:42.840Z,2.00
2023-04-02T21:48:12.050Z,1.90
2023-04-02T21:50:38.757Z,2.00
2023-04-02T21:53:05.804Z,2.00
2023-04-02T21:55:32.429Z,1.90
2023-04-02T21:57:59.129Z,2.00
2023-04-02T22:00:26.461Z,2.00
2023-04-02T22:02:53.223Z,1.90
2023-04-02T22:05:20.057Z,1.90
2023-04-02T22:07:46.761Z,1.90
2023-04-02T22:10:13.449Z,1.80
2023-04-02T22:12:40.135Z,1.70
2023-04-02T22:15:07.047Z,1.70
2023-04-02T22:17:33.757Z,1.70
2023-04-02T22:20:00.487Z,1.70
2023-04-02T22:22:27.241Z,1.70
2023-04-02T22:24:53.942Z,1.60
2023-04-02T22:27:20.711Z,1.60
2023-04-02T22:29:47.388Z,1.50
2023-04-02T22:32:14.120Z,1.50
2023-04-02T22:34:45.443Z,1.50
2023-04-02T22:37:12.333Z,1.50
2023-04-02T22:39:39.029Z,1.40
2023-04-02T22:42:05.976Z,1.40
2023-04-02T22:44:32.659Z,1.30
2023-04-02T22:46:59.349Z,1.30
2023-04-02T22:49:26.081Z,1.30
2023-04-02T22:51:53.315Z,1.20
2023-04-02T22:54:22.622Z,1.30
2023-04-02T22:56:49.513Z,1.30
2023-04-02T22:59:16.251Z,1.20
2023-04-02T23:01:43.401Z,1.20
2023-04-02T23:04:10.517Z,1.20
2023-04-02T23:06:37.196Z,1.10
2023-04-02T23:09:04.184Z,1.20
2023-04-02T23:11:31.073Z,1.20
2023-04-02T23:13:58.209Z,1.20
2023-04-02T23:16:27.062Z,1.20
2023-04-02T23:18:54.507Z,1.20
2023-04-02T23:21:21.594Z,1.10
2023-04-02T23:23:48.364Z,1.10
2023-04-02T23:26:16.560Z,1.00
2023-04-02T23:28:43.906Z,1.10
2023-04-02T23:31:12.865Z,1.00
2023-04-02T23:33:39.724Z,0.90
2023-04-02T23:36:07.597Z,0.90
2023-04-02T23:38:34.268Z,0.90
2023-04-02T23:41:00.929Z,0.90
2023-04-02T23:43:27.823Z,0.90
2023-04-02T23:45:54.564Z,0.90
2023-04-02T23:48:21.312Z,0.90
2023-04-02T23:50:48.042Z,0.80
2023-04-02T23:53:16.350Z,0.80
2023-04-02T23:55:43.108Z,0.80
2023-04-02T23:58:09.856Z,0.80
